Terminal Aerodrome Forecast
Issued by NWS

Home | Current Version | Previous Version | Text Only | Print | Product List | Glossary Off
Versions: 1 2 3 4 5 6 7 8 9 10 11 12 13 14 15 16 17 18 19 20 21 22 23 24 25 26 27 28 29 30 31 32 33 34 35 36 37 38 39 40 41 42 43 44 45 46 47 48

000
FTUS43 KGRB 101419 AAC
TAFRHI
TAF AMD
KRHI 101419Z 1014/1112 29006KT P6SM OVC012
      TEMPO 1014/1016 5SM -FZDZSN OVC006
     FM101600 32008KT P6SM -SN SCT008 BKN017
     FM101800 32008KT P6SM BKN035
     FM102200 33005KT P6SM SCT035 BKN200
     FM110600 VRB03KT P6SM SCT025 OVC070
     FM110800 17004KT 2SM -SN OVC015
     FM111000 16004KT 1SM -SN OVC008=

USA.gov is the U.S. government's official web portal to all federal, state and local government web resources and services.